Time;durP1;ratioP1;P1;durP2;ratioP2;P2;SDS_P1;SDS_P2;PMS_P1;PMS_P2;Temp;Humidity;BMP_temperature;BMP_pressure;BME280_temperature;BME280_humidity;BME280_pressure;Samples;Min_cycle;Max_cycle;Signal;HPM_P1;HPM_P2
2023/08/13 00:00:06;;;;;;;;;;;;;;;19.60;100.00;100009.38;5115106;28;862;-63
2023/08/13 00:02:33;;;;;;;;;;;;;;;19.61;100.00;100010.16;5115011;28;835;-63
2023/08/13 00:05:00;;;;;;;;;;;;;;;19.60;100.00;100000.97;5114873;28;819;-63
2023/08/13 00:07:27;;;;;;;;;;;;;;;19.55;100.00;100004.38;5114963;28;839;-63
2023/08/13 00:09:55;;;;;;;;;;;;;;;19.53;100.00;99999.22;5114750;28;1961;-63
2023/08/13 00:12:22;;;;;;;;;;;;;;;19.54;100.00;99991.59;5113585;28;1277;-63
2023/08/13 00:14:50;;;;;;;;;;;;;;;19.54;100.00;99995.19;5114792;28;837;-65
2023/08/13 00:17:17;;;;;;;;;;;;;;;19.56;100.00;99994.72;5114717;28;898;-62
2023/08/13 00:19:44;;;;;;;;;;;;;;;19.58;100.00;99993.00;5114768;28;835;-62
2023/08/13 00:22:10;;;;;;;;;;;;;;;19.60;100.00;99989.75;5114930;28;945;-63
2023/08/13 00:24:38;;;;;;;;;;;;;;;19.59;100.00;99991.78;5114632;27;862;-64
2023/08/13 00:27:04;;;;;;;;;;;;;;;19.61;100.00;99988.53;5114608;28;803;-63
2023/08/13 00:29:33;;;;;;;;;;;;;;;19.56;100.00;99977.88;5114475;28;1945;-63
2023/08/13 00:31:59;;;;;;;;;;;;;;;19.49;100.00;99986.59;5114424;28;870;-64
2023/08/13 00:34:26;;;;;;;;;;;;;;;19.46;100.00;99985.47;5114351;28;835;-63
2023/08/13 00:36:53;;;;;;;;;;;;;;;19.44;100.00;99987.97;5114251;28;862;-64
2023/08/13 00:39:19;;;;;;;;;;;;;;;19.41;100.00;99990.91;5114317;28;851;-64
2023/08/13 00:41:46;;;;;;;;;;;;;;;19.35;100.00;99985.91;5114337;28;823;-63
2023/08/13 00:44:13;;;;;;;;;;;;;;;19.30;100.00;99985.69;5114334;28;877;-62
2023/08/13 00:46:40;;;;;;;;;;;;;;;19.27;100.00;99990.22;5112845;28;872;-63
2023/08/13 00:49:07;;;;;;;;;;;;;;;19.22;100.00;99984.41;5113712;28;1935;-63
2023/08/13 00:51:35;;;;;;;;;;;;;;;19.17;100.00;99980.94;5112897;28;903;-64
2023/08/13 00:54:02;;;;;;;;;;;;;;;19.17;100.00;99985.78;5114174;28;893;-63
2023/08/13 00:56:29;;;;;;;;;;;;;;;19.14;100.00;99983.91;5114004;28;839;-66
2023/08/13 00:58:55;;;;;;;;;;;;;;;19.10;100.00;99981.22;5113916;28;930;-64
2023/08/13 01:01:23;;;;;;;;;;;;;;;19.09;100.00;99978.88;5113984;28;831;-64
2023/08/13 01:03:49;;;;;;;;;;;;;;;19.09;100.00;99970.47;5113999;28;811;-63
2023/08/13 01:06:31;;;;;;;;;;;;;;;19.06;100.00;99983.38;5113876;28;909;-63
2023/08/13 01:09:30;;;;;;;;;;;;;;;19.04;100.00;99976.69;5113788;28;1968;-65
2023/08/13 01:12:06;;;;;;;;;;;;;;;19.05;100.00;99978.22;5068561;28;1214;-64
2023/08/13 01:14:41;;;;;;;;;;;;;;;19.05;100.00;99978.22;5113698;28;898;-63
2023/08/13 01:17:07;;;;;;;;;;;;;;;19.03;100.00;99975.09;5112299;28;1398;-63
2023/08/13 01:19:34;;;;;;;;;;;;;;;19.00;100.00;99981.63;5113610;28;823;-63
2023/08/13 01:22:00;;;;;;;;;;;;;;;18.98;100.00;99984.88;5113508;28;830;-64
2023/08/13 01:24:27;;;;;;;;;;;;;;;18.97;100.00;99989.69;5113476;28;957;-63
2023/08/13 01:27:06;;;;;;;;;;;;;;;18.98;100.00;99984.88;5113333;28;880;-64
2023/08/13 01:29:57;;;;;;;;;;;;;;;19.01;100.00;99989.59;5113363;28;1885;-63
2023/08/13 01:32:28;;;;;;;;;;;;;;;18.97;100.00;99986.91;5102765;28;1459;-63
2023/08/13 01:34:55;;;;;;;;;;;;;;;18.95;100.00;99985.81;5113264;28;878;-63
2023/08/13 01:37:22;;;;;;;;;;;;;;;18.97;100.00;99983.31;5113177;28;823;-64
2023/08/13 01:39:49;;;;;;;;;;;;;;;18.98;100.00;99982.84;5113136;28;811;-63
2023/08/13 01:42:17;;;;;;;;;;;;;;;18.98;100.00;99984.88;5113163;28;859;-64
2023/08/13 01:44:43;;;;;;;;;;;;;;;18.97;100.00;99986.13;5113026;28;906;-63
2023/08/13 01:47:10;;;;;;;;;;;;;;;18.92;100.00;99990.25;5113122;28;878;-63
2023/08/13 01:49:37;;;;;;;;;;;;;;;18.90;100.00;99986.38;5111927;28;1950;-63
2023/08/13 01:52:04;;;;;;;;;;;;;;;18.87;100.00;99996.47;5113354;28;816;-63
2023/08/13 01:54:31;;;;;;;;;;;;;;;18.80;100.00;99995.94;5112851;28;879;-64
2023/08/13 01:56:58;;;;;;;;;;;;;;;18.76;100.00;99996.03;5112919;28;867;-64
2023/08/13 01:59:25;;;;;;;;;;;;;;;18.72;100.00;99987.75;5112750;28;905;-64
2023/08/13 02:01:52;;;;;;;;;;;;;;;18.71;100.00;99993.81;5112822;28;855;-63
2023/08/13 02:04:19;;;;;;;;;;;;;;;18.71;100.00;99986.22;5112743;28;819;-63
2023/08/13 02:06:45;;;;;;;;;;;;;;;18.72;100.00;100001.00;5112719;28;921;-63
2023/08/13 02:09:12;;;;;;;;;;;;;;;18.70;100.00;99993.03;5112603;28;1910;-63
2023/08/13 02:11:39;;;;;;;;;;;;;;;18.62;100.00;99996.53;5112611;28;886;-63
2023/08/13 02:14:05;;;;;;;;;;;;;;;18.60;100.00;99996.22;5112608;28;878;-63
2023/08/13 02:16:32;;;;;;;;;;;;;;;18.54;100.00;99998.78;5112773;28;807;-65
2023/08/13 02:18:59;;;;;;;;;;;;;;;18.54;100.00;100002.41;5112644;28;850;-64
2023/08/13 02:21:26;;;;;;;;;;;;;;;18.51;100.00;100003.28;5112471;28;878;-63
2023/08/13 02:23:52;;;;;;;;;;;;;;;18.47;100.00;100001.84;5112500;28;874;-63
2023/08/13 02:26:19;;;;;;;;;;;;;;;18.48;100.00;100011.81;5112460;28;823;-63
2023/08/13 02:28:46;;;;;;;;;;;;;;;18.49;100.00;100000.16;5112227;28;1881;-62
2023/08/13 02:31:12;;;;;;;;;;;;;;;18.47;100.00;100010.25;5112593;28;822;-63
2023/08/13 02:33:39;;;;;;;;;;;;;;;18.47;100.00;100008.22;5112277;28;963;-65
2023/08/13 02:36:06;;;;;;;;;;;;;;;18.48;100.00;100009.78;5112305;28;819;-64
2023/08/13 02:38:33;;;;;;;;;;;;;;;18.50;100.00;100006.56;5112384;28;890;-63
2023/08/13 02:41:00;;;;;;;;;;;;;;;18.50;100.00;100014.94;5112374;28;882;-65
2023/08/13 02:43:30;;;;;;;;;;;;;;;18.49;100.00;100005.75;5112194;28;964;-63
2023/08/13 02:45:57;;;;;;;;;;;;;;;18.51;100.00;100006.09;5112319;28;925;-64
2023/08/13 02:48:24;;;;;;;;;;;;;;;18.51;100.00;100017.28;5112088;28;947;-64
2023/08/13 02:50:50;;;;;;;;;;;;;;;18.52;100.00;100015.25;5111802;28;1889;-63
2023/08/13 02:53:17;;;;;;;;;;;;;;;18.56;100.00;100016.72;5110841;28;808;-63
2023/08/13 02:55:43;;;;;;;;;;;;;;;18.61;100.00;100012.56;5112125;28;874;-67
2023/08/13 02:58:10;;;;;;;;;;;;;;;18.62;100.00;100014.09;5112180;28;818;-65
2023/08/13 03:00:37;;;;;;;;;;;;;;;18.59;100.00;100008.66;5112779;28;941;-66
2023/08/13 03:03:03;;;;;;;;;;;;;;;18.61;100.00;100020.19;5114912;28;1201;-64
2023/08/13 03:05:32;;;;;;;;;;;;;;;18.58;100.00;100024.66;5116153;28;878;-64
2023/08/13 03:07:58;;;;;;;;;;;;;;;18.56;100.00;100021.50;5116094;28;909;-65
2023/08/13 03:10:25;;;;;;;;;;;;;;;18.56;100.00;100021.50;5116344;27;1910;-63
2023/08/13 03:12:52;;;;;;;;;;;;;;;18.55;100.00;100015.13;5136686;27;865;-64
2023/08/13 03:15:18;;;;;;;;;;;;;;;18.56;100.00;100015.91;5136453;27;835;-63
2023/08/13 03:17:45;;;;;;;;;;;;;;;18.56;100.00;100021.50;5136577;27;831;-63
2023/08/13 03:20:11;;;;;;;;;;;;;;;18.55;100.00;100012.34;5136551;27;819;-64
2023/08/13 03:22:38;;;;;;;;;;;;;;;18.57;100.00;100023.09;5136761;27;850;-63
2023/08/13 03:25:06;;;;;;;;;;;;;;;18.58;100.00;100013.44;5136533;27;819;-63
2023/08/13 03:27:32;;;;;;;;;;;;;;;18.61;100.00;100011.78;5136333;27;852;-65
2023/08/13 03:29:59;;;;;;;;;;;;;;;18.65;100.00;100015.22;5136240;27;1962;-63
2023/08/13 03:32:25;;;;;;;;;;;;;;;18.69;100.00;100018.66;5136449;27;827;-63
2023/08/13 03:34:52;;;;;;;;;;;;;;;18.70;100.00;100006.25;5135059;27;1292;-64
2023/08/13 03:37:20;;;;;;;;;;;;;;;18.73;100.00;100013.72;5136711;27;890;-63
2023/08/13 03:39:46;;;;;;;;;;;;;;;18.75;100.00;100017.66;5134925;27;893;-63
2023/08/13 03:42:13;;;;;;;;;;;;;;;18.75;100.00;100014.06;5136359;27;858;-63
2023/08/13 03:44:40;;;;;;;;;;;;;;;18.77;100.00;100012.38;5136048;27;889;-63
2023/08/13 03:47:07;;;;;;;;;;;;;;;18.81;100.00;100009.47;5136175;27;819;-64
2023/08/13 03:49:34;;;;;;;;;;;;;;;18.86;100.00;100011.72;5135653;27;1952;-65
2023/08/13 03:52:01;;;;;;;;;;;;;;;18.88;100.00;100008.44;5136209;27;798;-65
2023/08/13 03:54:28;;;;;;;;;;;;;;;18.93;100.00;100017.06;5135969;27;897;-63
2023/08/13 03:56:55;;;;;;;;;;;;;;;19.02;100.00;100018.38;5136161;27;843;-63
2023/08/13 03:59:21;;;;;;;;;;;;;;;19.10;100.00;100014.06;5136069;27;898;-64
2023/08/13 04:01:48;;;;;;;;;;;;;;;19.20;100.00;100009.28;5135752;27;1288;-63
2023/08/13 04:04:15;;;;;;;;;;;;;;;19.31;100.00;100015.28;5135747;27;819;-63
2023/08/13 04:06:43;;;;;;;;;;;;;;;19.43;100.00;100008.81;5135532;27;1205;-64
2023/08/13 04:09:10;;;;;;;;;;;;;;;19.56;100.00;100014.34;5135710;27;1914;-65
2023/08/13 04:11:36;;;;;;;;;;;;;;;19.65;100.00;100014.41;5135115;27;1221;-66
2023/08/13 04:14:03;;;;;;;;;;;;;;;19.76;100.00;100016.81;5135570;27;814;-65
2023/08/13 04:16:30;;;;;;;;;;;;;;;19.87;100.00;100022.78;5134116;27;1198;-65
2023/08/13 04:18:57;;;;;;;;;;;;;;;19.91;100.00;100015.00;5135355;27;871;-63
2023/08/13 04:21:27;;;;;;;;;;;;;;;19.95;100.00;100014.84;5134261;27;1210;-64
2023/08/13 04:23:56;;;;;;;;;;;;;;;19.97;100.00;100018.75;5135216;27;833;-65
2023/08/13 04:26:23;;;;;;;;;;;;;;;19.94;100.00;100010.47;5135127;27;874;-63
2023/08/13 04:28:50;;;;;;;;;;;;;;;19.92;100.00;100021.38;5135074;27;1952;-63
2023/08/13 04:31:20;;;;;;;;;;;;;;;20.11;100.00;100017.38;5134568;27;879;-65
2023/08/13 04:33:48;;;;;;;;;;;;;;;20.42;99.91;100015.72;5135015;27;912;-65
2023/08/13 04:36:15;;;;;;;;;;;;;;;20.70;97.67;100013.78;5134993;27;882;-64
2023/08/13 04:38:42;;;;;;;;;;;;;;;20.78;96.01;100018.63;5134949;27;828;-65
2023/08/13 04:41:09;;;;;;;;;;;;;;;20.81;95.38;100014.09;5134111;27;866;-65
2023/08/13 04:43:35;;;;;;;;;;;;;;;20.92;94.12;100022.06;5134232;27;799;-63
2023/08/13 04:46:02;;;;;;;;;;;;;;;21.00;93.01;100024.06;5134325;27;881;-63
2023/08/13 04:48:45;;;;;;;;;;;;;;;21.10;91.99;100024.06;5134744;27;932;-64
2023/08/13 04:51:12;;;;;;;;;;;;;;;21.19;90.63;100029.69;5134660;27;841;-67
2023/08/13 04:53:39;;;;;;;;;;;;;;;21.26;90.01;100034.19;5134705;27;799;-63
2023/08/13 04:56:09;;;;;;;;;;;;;;;21.30;89.31;100029.19;5134912;27;1001;-63
2023/08/13 04:58:35;;;;;;;;;;;;;;;21.37;88.86;100035.25;5134503;27;882;-64
2023/08/13 05:01:03;;;;;;;;;;;;;;;21.45;87.57;100032.16;5134506;27;926;-64
2023/08/13 05:03:31;;;;;;;;;;;;;;;21.51;86.47;100033.09;5134590;27;863;-64
2023/08/13 05:05:59;;;;;;;;;;;;;;;21.61;85.93;100043.03;5134443;27;857;-64
2023/08/13 05:08:25;;;;;;;;;;;;;;;21.70;85.15;100037.41;5134411;27;807;-64
2023/08/13 05:10:51;;;;;;;;;;;;;;;21.76;84.30;100038.31;5134270;27;1914;-64
2023/08/13 05:13:18;;;;;;;;;;;;;;;21.85;82.91;100042.34;5134288;27;877;-66
2023/08/13 05:15:45;;;;;;;;;;;;;;;21.91;80.93;100040.44;5134196;27;829;-64
2023/08/13 05:18:12;;;;;;;;;;;;;;;22.00;80.20;100037.59;5134091;27;866;-64
2023/08/13 05:20:38;;;;;;;;;;;;;;;22.13;79.75;100046.59;5134050;27;846;-63
2023/08/13 05:23:05;;;;;;;;;;;;;;;22.31;78.57;100047.78;5133296;27;882;-63
2023/08/13 05:25:38;;;;;;;;;;;;;;;22.35;76.70;100046.34;5134410;27;819;-65
2023/08/13 05:28:07;;;;;;;;;;;;;;;22.38;76.52;100053.06;5133867;27;913;-63
2023/08/13 05:30:37;;;;;;;;;;;;;;;22.41;76.68;100047.25;5133859;27;1957;-63
2023/08/13 05:33:03;;;;;;;;;;;;;;;22.37;76.35;100052.28;5133805;27;836;-63
2023/08/13 05:35:30;;;;;;;;;;;;;;;22.51;75.41;100059.25;5133821;27;859;-64
2023/08/13 05:37:57;;;;;;;;;;;;;;;22.73;74.01;100053.31;5133706;27;831;-65
2023/08/13 05:40:23;;;;;;;;;;;;;;;23.08;72.06;100051.94;5133738;27;838;-64
2023/08/13 05:42:50;;;;;;;;;;;;;;;23.38;69.31;100049.94;5133926;27;839;-64
2023/08/13 05:45:17;;;;;;;;;;;;;;;23.69;68.21;100051.50;5133614;27;886;-63
2023/08/13 05:47:44;;;;;;;;;;;;;;;24.18;65.46;100053.59;5133595;27;847;-64
2023/08/13 05:50:11;;;;;;;;;;;;;;;24.51;64.16;100057.41;5133233;27;1997;-63
2023/08/13 05:52:37;;;;;;;;;;;;;;;24.67;61.70;100053.25;5133842;27;819;-63
2023/08/13 05:55:04;;;;;;;;;;;;;;;24.55;60.79;100055.91;5133506;27;851;-66
2023/08/13 05:57:31;;;;;;;;;;;;;;;24.63;59.91;100051.41;5133307;27;818;-64
2023/08/13 05:59:59;;;;;;;;;;;;;;;24.80;58.64;100048.00;5133397;27;807;-64
2023/08/13 06:02:26;;;;;;;;;;;;;;;24.96;57.19;100050.25;5133230;27;926;-64
2023/08/13 06:04:52;;;;;;;;;;;;;;;25.20;55.97;100050.03;5133615;27;862;-66
2023/08/13 06:07:19;;;;;;;;;;;;;;;25.66;54.13;100051.22;5133213;27;948;-63
2023/08/13 06:09:46;;;;;;;;;;;;;;;26.14;53.01;100063.94;5133156;27;1913;-64
2023/08/13 06:12:13;;;;;;;;;;;;;;;26.53;51.12;100058.53;5133123;27;879;-64
2023/08/13 06:14:40;;;;;;;;;;;;;;;27.05;49.82;100058.22;5133156;27;866;-65
2023/08/13 06:17:07;;;;;;;;;;;;;;;27.13;48.89;100061.34;5133131;27;807;-65
2023/08/13 06:19:34;;;;;;;;;;;;;;;27.19;48.46;100064.22;5133014;27;814;-63
2023/08/13 06:22:00;;;;;;;;;;;;;;;27.13;49.06;100064.19;5133012;27;877;-63
2023/08/13 06:24:26;;;;;;;;;;;;;;;27.13;48.04;100069.88;5132910;27;795;-63
2023/08/13 06:26:52;;;;;;;;;;;;;;;27.27;47.94;100059.63;5132924;27;875;-64
2023/08/13 06:29:18;;;;;;;;;;;;;;;27.45;46.99;100064.03;5132733;27;1889;-64
2023/08/13 06:31:44;;;;;;;;;;;;;;;28.05;45.77;100066.63;5132379;27;867;-63
2023/08/13 06:34:11;;;;;;;;;;;;;;;28.92;43.63;100064.59;5132685;27;897;-63
2023/08/13 06:36:38;;;;;;;;;;;;;;;29.57;42.62;100063.16;5133087;27;843;-63
2023/08/13 06:39:04;;;;;;;;;;;;;;;29.98;41.04;100064.41;5132820;27;863;-64
2023/08/13 06:41:31;;;;;;;;;;;;;;;30.15;40.19;100059.34;5132755;27;827;-64
2023/08/13 06:43:58;;;;;;;;;;;;;;;30.46;39.09;100063.69;5132690;27;855;-63
2023/08/13 06:46:25;;;;;;;;;;;;;;;31.02;37.92;100052.91;5132611;27;877;-64
2023/08/13 06:48:51;;;;;;;;;;;;;;;31.97;36.19;100070.66;5131129;28;1952;-64
2023/08/13 06:51:18;;;;;;;;;;;;;;;32.06;33.75;100067.41;5132825;27;856;-66
2023/08/13 06:53:45;;;;;;;;;;;;;;;32.08;33.77;100058.28;5132980;27;811;-64
2023/08/13 06:56:12;;;;;;;;;;;;;;;32.45;32.71;100053.66;5132577;27;827;-64
2023/08/13 06:58:39;;;;;;;;;;;;;;;32.77;32.68;100058.50;5132558;27;834;-65
2023/08/13 07:01:05;;;;;;;;;;;;;;;32.64;31.54;100062.94;5132668;27;830;-64
2023/08/13 07:03:32;;;;;;;;;;;;;;;32.44;31.83;100061.50;5132486;27;848;-64
2023/08/13 07:05:59;;;;;;;;;;;;;;;32.94;31.48;100067.50;5132585;27;878;-64
2023/08/13 07:08:27;;;;;;;;;;;;;;;33.15;31.20;100067.59;5132486;27;823;-64
2023/08/13 07:10:53;;;;;;;;;;;;;;;33.03;30.95;100069.94;5132523;27;1909;-65
2023/08/13 07:13:20;;;;;;;;;;;;;;;33.13;30.64;100070.25;5132459;27;831;-66
2023/08/13 07:15:47;;;;;;;;;;;;;;;32.39;31.52;100064.44;5131256;28;1423;-65
2023/08/13 07:18:14;;;;;;;;;;;;;;;32.18;31.46;100072.91;5132392;27;985;-65
2023/08/13 07:32:51;;;;;;;;;;;;;;;32.18;31.76;100070.84;5132064;28;1005;-62
2023/08/13 07:35:18;;;;;;;;;;;;;;;32.29;31.44;100076.34;5132344;27;840;-62
2023/08/13 07:37:44;;;;;;;;;;;;;;;32.51;31.47;100068.63;5133128;27;812;-63
2023/08/13 07:40:11;;;;;;;;;;;;;;;32.94;31.70;100070.38;5132266;27;811;-64
2023/08/13 07:42:39;;;;;;;;;;;;;;;32.74;30.13;100063.25;5132211;27;906;-65
2023/08/13 07:45:06;;;;;;;;;;;;;;;32.75;30.43;100059.84;5130902;28;1186;-66
2023/08/13 07:47:34;;;;;;;;;;;;;;;32.97;30.62;100066.41;5134758;27;818;-66
2023/08/13 07:50:01;;;;;;;;;;;;;;;33.18;30.65;100063.63;5135944;27;2041;-63
2023/08/13 07:52:31;;;;;;;;;;;;;;;33.23;29.43;100057.00;5136278;27;838;-65
2023/08/13 07:54:58;;;;;;;;;;;;;;;32.80;29.89;100063.16;5135852;27;878;-64
2023/08/13 07:57:25;;;;;;;;;;;;;;;32.92;29.97;100064.44;5135782;27;803;-64
2023/08/13 07:59:53;;;;;;;;;;;;;;;33.10;29.36;100063.53;5135752;27;839;-64
2023/08/13 08:02:19;;;;;;;;;;;;;;;32.99;28.80;100054.38;5135684;27;882;-63
2023/08/13 08:04:47;;;;;;;;;;;;;;;33.05;29.59;100058.69;5135581;27;835;-65
2023/08/13 08:07:14;;;;;;;;;;;;;;;33.50;28.56;100051.16;5135631;27;847;-64
2023/08/13 08:09:40;;;;;;;;;;;;;;;33.43;28.12;100044.03;5135531;27;1981;-66
2023/08/13 08:12:07;;;;;;;;;;;;;;;33.60;29.27;100040.78;5135574;27;923;-63
2023/08/13 08:14:34;;;;;;;;;;;;;;;34.08;27.62;100038.50;5134037;27;871;-64
2023/08/13 08:20:04;;;;;;;;;;;;;;;33.84;28.12;100036.00;5134515;27;667;-62
2023/08/13 08:22:30;;;;;;;;;;;;;;;34.02;27.49;100034.25;5135174;27;850;-64
2023/08/13 08:24:57;;;;;;;;;;;;;;;34.23;27.04;100034.22;5135215;27;881;-63
2023/08/13 08:27:24;;;;;;;;;;;;;;;33.74;26.72;100033.66;5135107;27;886;-64
2023/08/13 08:29:51;;;;;;;;;;;;;;;33.75;26.27;100029.44;5135089;27;1954;-62
2023/08/13 08:32:18;;;;;;;;;;;;;;;33.61;26.89;100019.41;5135030;27;894;-61
2023/08/13 08:34:45;;;;;;;;;;;;;;;33.62;26.94;100037.34;5133750;27;1480;-63
2023/08/13 08:37:13;;;;;;;;;;;;;;;33.42;26.48;100033.13;5134964;27;806;-64
2023/08/13 08:39:40;;;;;;;;;;;;;;;33.54;26.60;100026.56;5134945;27;968;-63
2023/08/13 08:42:08;;;;;;;;;;;;;;;33.66;25.98;100026.31;5133485;27;1305;-67
2023/08/13 08:44:37;;;;;;;;;;;;;;;33.55;27.06;100028.09;5134814;27;839;-65
2023/08/13 08:47:05;;;;;;;;;;;;;;;33.77;25.53;100011.69;5134836;27;818;-64
2023/08/13 08:49:33;;;;;;;;;;;;;;;33.43;25.92;100020.34;5134488;27;1890;-68
2023/08/13 08:51:59;;;;;;;;;;;;;;;33.30;27.20;100024.03;5134801;27;848;-67
2023/08/13 08:54:26;;;;;;;;;;;;;;;33.09;26.90;100018.28;5134898;27;870;-66
2023/08/13 08:56:51;;;;;;;;;;;;;;;32.96;27.50;100019.06;5134740;27;874;-64
2023/08/13 08:59:19;;;;;;;;;;;;;;;33.52;26.81;100014.13;5134635;27;870;-64
2023/08/13 09:01:46;;;;;;;;;;;;;;;33.68;26.22;100021.56;5134793;27;908;-65
2023/08/13 09:04:13;;;;;;;;;;;;;;;33.49;26.49;100023.84;5134726;27;791;-65
2023/08/13 09:07:00;;;;;;;;;;;;;;;33.54;26.09;100005.72;5134630;27;803;-66
2023/08/13 09:09:27;;;;;;;;;;;;;;;32.90;27.21;100010.63;5134324;27;1962;-66
2023/08/13 09:11:54;;;;;;;;;;;;;;;32.79;27.84;100004.38;5133054;27;1299;-65
2023/08/13 09:14:22;;;;;;;;;;;;;;;33.19;26.48;100010.75;5133044;27;1326;-71
2023/08/13 09:16:49;;;;;;;;;;;;;;;33.37;26.38;100003.28;5134386;27;1246;-65
2023/08/13 09:19:16;;;;;;;;;;;;;;;33.71;26.77;100000.38;5134350;27;1240;-66
2023/08/13 09:21:52;;;;;;;;;;;;;;;33.61;26.92;100007.16;5132989;27;1205;-64
2023/08/13 09:24:30;;;;;;;;;;;;;;;33.92;27.04;100005.31;5134189;27;804;-65
2023/08/13 09:26:57;;;;;;;;;;;;;;;33.82;26.73;100002.19;5134803;27;768;-65
2023/08/13 09:29:23;;;;;;;;;;;;;;;33.61;26.36;99996.47;5133971;27;1977;-65
2023/08/13 09:31:50;;;;;;;;;;;;;;;33.51;26.77;99981.06;5133835;27;862;-64
2023/08/13 09:34:19;;;;;;;;;;;;;;;33.40;26.40;99992.81;5132638;27;1213;-65
2023/08/13 09:36:46;;;;;;;;;;;;;;;33.17;27.16;100001.94;5133967;27;877;-64
2023/08/13 09:39:13;;;;;;;;;;;;;;;33.04;26.67;99990.53;5134091;27;819;-65
2023/08/13 09:41:40;;;;;;;;;;;;;;;32.70;26.47;99992.06;5133791;27;878;-68
2023/08/13 09:44:10;;;;;;;;;;;;;;;32.39;27.06;99992.94;5133866;27;826;-65
2023/08/13 09:46:36;;;;;;;;;;;;;;;32.54;26.70;99991.09;5133630;27;821;-66
2023/08/13 09:49:04;;;;;;;;;;;;;;;32.50;26.76;99990.63;5133289;27;1885;-65
2023/08/13 09:51:32;;;;;;;;;;;;;;;32.69;27.34;100004.03;5133819;27;838;-64
2023/08/13 09:54:03;;;;;;;;;;;;;;;32.58;26.85;99993.59;5133673;27;799;-66
2023/08/13 09:56:30;;;;;;;;;;;;;;;32.53;27.06;99992.41;5133600;27;855;-66
2023/08/13 10:08:41;;;;;;;;;;;;;;;33.40;25.84;99962.09;5132803;27;613;-62
2023/08/13 10:43:05;;;;;;;;;;;;;;;33.52;24.72;99934.69;5480581;22;1485;-64
2023/08/13 10:45:36;;;;;;;;;;;;;;;34.00;25.05;99930.81;5051660;28;894;-65
2023/08/13 10:48:04;;;;;;;;;;;;;;;34.02;24.17;99936.75;5051680;28;811;-65
2023/08/13 10:50:33;;;;;;;;;;;;;;;33.80;23.92;99930.34;5051579;28;1971;-64
2023/08/13 10:53:07;;;;;;;;;;;;;;;33.84;24.01;99935.69;5051591;28;942;-66
2023/08/13 10:56:04;;;;;;;;;;;;;;;33.73;24.67;99937.53;5051606;28;891;-65
2023/08/13 10:58:42;;;;;;;;;;;;;;;34.10;24.26;99921.13;5034535;28;1404;-65
2023/08/13 11:01:19;;;;;;;;;;;;;;;34.33;24.32;99927.00;5051533;28;827;-65
2023/08/13 11:03:55;;;;;;;;;;;;;;;34.20;24.17;99921.38;5051558;28;839;-64
2023/08/13 11:06:23;;;;;;;;;;;;;;;34.25;24.66;99923.34;5051518;28;827;-64
2023/08/13 11:08:51;;;;;;;;;;;;;;;34.45;24.56;99915.94;5051400;28;1914;-64
2023/08/13 11:11:18;;;;;;;;;;;;;;;34.50;24.70;99915.03;5051437;28;803;-64
2023/08/13 11:13:45;;;;;;;;;;;;;;;34.45;24.15;99909.44;5051396;28;830;-64
2023/08/13 11:19:14;;;;;;;;;;;;;;;34.87;23.62;99915.72;5050636;28;800;-64
2023/08/13 11:21:43;;;;;;;;;;;;;;;34.77;23.66;99903.25;5052253;28;850;-66
2023/08/13 11:24:10;;;;;;;;;;;;;;;35.24;23.92;99904.84;5055226;28;827;-64
2023/08/13 11:26:37;;;;;;;;;;;;;;;35.38;23.54;99888.19;5055510;28;823;-69
2023/08/13 11:29:03;;;;;;;;;;;;;;;35.50;24.22;99903.69;5055025;28;1955;-65
2023/08/13 11:31:29;;;;;;;;;;;;;;;35.33;23.61;99903.50;5055134;28;836;-68
2023/08/13 11:33:56;;;;;;;;;;;;;;;35.08;24.05;99903.28;5055063;28;899;-64
2023/08/13 11:36:23;;;;;;;;;;;;;;;34.96;23.80;99906.53;5054906;28;835;-64
2023/08/13 11:38:50;;;;;;;;;;;;;;;35.10;24.17;99906.34;5055061;28;914;-66
2023/08/13 11:41:17;;;;;;;;;;;;;;;35.26;23.42;99893.56;5054740;28;1056;-68
2023/08/13 11:43:43;;;;;;;;;;;;;;;34.94;23.67;99896.97;5054576;28;1371;-65
2023/08/13 11:46:10;;;;;;;;;;;;;;;35.21;24.12;99900.28;5054944;28;827;-66
2023/08/13 11:48:37;;;;;;;;;;;;;;;35.62;23.44;99883.19;5054752;28;860;-64
2023/08/13 11:51:11;;;;;;;;;;;;;;;35.94;23.60;99883.31;5054630;28;1978;-64
2023/08/13 11:53:44;;;;;;;;;;;;;;;36.46;23.27;99874.28;5054667;28;1575;-66
2023/08/13 11:56:14;;;;;;;;;;;;;;;36.65;23.58;99899.72;5054525;28;934;-64
2023/08/13 11:58:41;;;;;;;;;;;;;;;36.46;22.69;99896.56;5054718;28;819;-64
2023/08/13 12:01:10;;;;;;;;;;;;;;;36.27;23.64;99882.66;5054474;28;844;-65
2023/08/13 12:03:44;;;;;;;;;;;;;;;36.18;23.51;99907.03;5054552;28;863;-64
2023/08/13 12:06:11;;;;;;;;;;;;;;;36.57;23.19;99887.47;5053242;28;859;-65
2023/08/13 12:08:38;;;;;;;;;;;;;;;36.54;23.31;99882.91;5054711;28;946;-64
2023/08/13 12:11:05;;;;;;;;;;;;;;;37.36;22.75;99855.44;5054342;28;1894;-65
2023/08/13 12:13:39;;;;;;;;;;;;;;;37.23;22.62;99875.94;5054457;28;903;-64
2023/08/13 12:16:05;;;;;;;;;;;;;;;36.54;22.55;99877.13;5054222;28;823;-65
2023/08/13 12:18:31;;;;;;;;;;;;;;;36.66;23.10;99872.50;5054239;28;813;-63
2023/08/13 12:20:58;;;;;;;;;;;;;;;36.88;22.76;99875.81;5054167;28;906;-65
2023/08/13 12:23:25;;;;;;;;;;;;;;;37.03;22.96;99857.63;5054043;28;827;-66
2023/08/13 12:25:51;;;;;;;;;;;;;;;37.78;22.42;99864.06;5054123;28;823;-64
2023/08/13 12:28:18;;;;;;;;;;;;;;;37.58;22.29;99859.50;5053957;28;870;-64
2023/08/13 12:30:44;;;;;;;;;;;;;;;37.33;22.53;99871.03;5053976;28;1897;-64
2023/08/13 12:33:11;;;;;;;;;;;;;;;37.65;22.52;99866.53;5053620;28;827;-64
2023/08/13 12:35:37;;;;;;;;;;;;;;;37.75;21.79;99861.63;5053900;28;878;-65
2023/08/13 12:38:04;;;;;;;;;;;;;;;37.31;21.81;99865.09;5053841;28;885;-64
2023/08/13 12:40:31;;;;;;;;;;;;;;;37.25;22.15;99867.44;5053846;28;839;-67
2023/08/13 12:42:57;;;;;;;;;;;;;;;36.55;22.49;99861.38;5053638;28;1355;-64
2023/08/13 12:45:24;;;;;;;;;;;;;;;35.54;23.85;99868.81;5053898;28;838;-64
2023/08/13 12:47:50;;;;;;;;;;;;;;;35.99;23.27;99862.19;5053817;28;835;-65
2023/08/13 12:50:17;;;;;;;;;;;;;;;36.47;22.88;99852.06;5053781;28;1917;-64
2023/08/13 12:52:44;;;;;;;;;;;;;;;37.25;22.80;99853.06;5053914;28;1271;-64
2023/08/13 12:55:10;;;;;;;;;;;;;;;37.36;21.68;99859.09;5053755;28;815;-68
2023/08/13 12:57:37;;;;;;;;;;;;;;;36.81;22.68;99856.44;5053502;28;1281;-65
2023/08/13 13:03:07;;;;;;;;;;;;;;;35.75;22.71;99866.50;5052708;28;767;-68
2023/08/13 13:05:33;;;;;;;;;;;;;;;34.86;23.92;99858.88;5053345;28;803;-64
2023/08/13 13:08:00;;;;;;;;;;;;;;;36.24;23.03;99852.19;5052087;28;1390;-69
2023/08/13 13:10:26;;;;;;;;;;;;;;;36.48;22.56;99857.22;5053126;28;1955;-66
2023/08/13 13:12:54;;;;;;;;;;;;;;;36.65;21.72;99856.56;5053206;28;796;-64
2023/08/13 13:15:20;;;;;;;;;;;;;;;36.93;21.71;99852.50;5053132;28;850;-64
2023/08/13 13:17:48;;;;;;;;;;;;;;;36.95;21.48;99854.81;5053074;28;842;-64
2023/08/13 13:20:14;;;;;;;;;;;;;;;36.98;21.56;99850.75;5053051;28;827;-64
2023/08/13 13:22:41;;;;;;;;;;;;;;;37.47;21.77;99857.84;5052981;28;804;-65
2023/08/13 13:25:13;;;;;;;;;;;;;;;37.75;21.64;99852.97;5052918;28;987;-65
2023/08/13 13:27:41;;;;;;;;;;;;;;;37.90;20.99;99852.03;5052882;28;815;-66
2023/08/13 13:30:08;;;;;;;;;;;;;;;37.56;21.12;99850.63;5052834;28;1893;-65
2023/08/13 13:32:35;;;;;;;;;;;;;;;37.38;21.89;99846.97;5052728;28;871;-64
2023/08/13 13:35:02;;;;;;;;;;;;;;;37.52;21.15;99845.28;5052800;28;882;-65
2023/08/13 13:37:29;;;;;;;;;;;;;;;37.30;21.46;99840.50;5052659;28;898;-63
2023/08/13 13:39:55;;;;;;;;;;;;;;;37.04;21.66;99841.88;5052537;28;847;-65
2023/08/13 13:42:23;;;;;;;;;;;;;;;37.50;21.69;99848.00;5052639;28;1341;-64
2023/08/13 13:44:50;;;;;;;;;;;;;;;37.11;21.66;99835.31;5051942;28;824;-64
2023/08/13 13:47:16;;;;;;;;;;;;;;;36.79;22.14;99843.41;5052459;28;890;-65
2023/08/13 13:49:42;;;;;;;;;;;;;;;36.52;22.43;99848.19;5052420;28;1918;-64
2023/08/13 13:52:09;;;;;;;;;;;;;;;36.59;22.20;99839.50;5052423;28;878;-65
2023/08/13 13:54:35;;;;;;;;;;;;;;;36.57;22.36;99847.16;5052369;28;878;-66
2023/08/13 13:57:02;;;;;;;;;;;;;;;36.26;22.14;99844.47;5052450;28;937;-67
2023/08/13 13:59:29;;;;;;;;;;;;;;;35.75;22.97;99855.00;5052209;28;812;-65